createdAt,value
2023-04-15T00:00:06.512Z,98088.84
2023-04-15T00:03:04.634Z,98088.69
2023-04-15T00:05:41.086Z,98092.59
2023-04-15T00:08:14.877Z,98101.56
2023-04-15T00:10:47.535Z,98092.31
2023-04-15T00:13:25.354Z,98097.97
2023-04-15T00:15:57.049Z,98095.31
2023-04-15T00:18:34.143Z,98098.72
2023-04-15T00:21:05.351Z,98105.91
2023-04-15T00:23:36.910Z,98100.69
2023-04-15T00:26:09.659Z,98091.19
2023-04-15T00:28:48.147Z,98095.81
2023-04-15T00:31:21.910Z,98100.84
2023-04-15T00:33:54.507Z,98104.22
2023-04-15T00:36:27.066Z,98110.41
2023-04-15T00:38:57.900Z,98117.63
2023-04-15T00:41:30.110Z,98121.09
2023-04-15T00:44:02.387Z,98119.50
2023-04-15T00:46:32.684Z,98121.50
2023-04-15T00:49:09.819Z,98119.56
2023-04-15T00:51:44.994Z,98121.56
2023-04-15T00:54:16.907Z,98117.63
2023-04-15T00:56:45.797Z,98128.50
2023-04-15T00:59:19.745Z,98122.56
2023-04-15T01:01:48.785Z,98127.34
2023-04-15T01:04:32.098Z,98139.06
2023-04-15T01:07:01.879Z,98123.28
2023-04-15T01:09:33.405Z,98137.91
2023-04-15T01:12:07.913Z,98134.13
2023-04-15T01:14:41.768Z,98134.94
2023-04-15T01:17:21.303Z,98137.50
2023-04-15T01:20:06.085Z,98139.16
2023-04-15T01:22:43.237Z,98144.91
2023-04-15T01:25:18.782Z,98152.00
2023-04-15T01:27:50.676Z,98142.50
2023-04-15T01:30:21.852Z,98153.50
2023-04-15T01:33:01.577Z,98157.94
2023-04-15T01:35:30.986Z,98150.44
2023-04-15T01:38:09.919Z,98157.22
2023-04-15T01:40:49.789Z,98154.47
2023-04-15T01:43:23.654Z,98149.00
2023-04-15T01:45:55.834Z,98150.00
2023-04-15T01:48:39.712Z,98160.44
2023-04-15T01:51:20.138Z,98153.06
2023-04-15T01:53:59.934Z,98154.66
2023-04-15T01:56:29.062Z,98162.50
2023-04-15T01:59:06.239Z,98163.72
2023-04-15T02:01:37.725Z,98159.44
2023-04-15T02:04:09.919Z,98165.16
2023-04-15T02:06:48.241Z,98165.66
2023-04-15T02:09:20.698Z,98168.06
2023-04-15T02:11:53.700Z,98172.88
2023-04-15T02:14:23.913Z,98172.09
2023-04-15T02:17:00.411Z,98170.31
2023-04-15T02:19:35.907Z,98167.88
2023-04-15T02:22:18.977Z,98171.13
2023-04-15T02:24:54.384Z,98169.81
2023-04-15T02:27:23.818Z,98179.44
2023-04-15T02:29:56.606Z,98176.56
2023-04-15T02:32:31.658Z,98186.94
2023-04-15T02:35:05.613Z,98182.25
2023-04-15T02:37:40.705Z,98182.66
2023-04-15T02:40:20.689Z,98176.19
2023-04-15T02:42:52.401Z,98185.09
2023-04-15T02:45:27.693Z,98189.19
2023-04-15T02:47:57.020Z,98185.06
2023-04-15T02:50:30.130Z,98187.94
2023-04-15T02:53:04.483Z,98191.69
2023-04-15T02:55:34.017Z,98186.94
2023-04-15T02:58:03.725Z,98191.31
2023-04-15T03:00:46.530Z,98189.47
2023-04-15T03:03:20.117Z,98194.94
2023-04-15T03:05:50.821Z,98192.81
2023-04-15T03:08:23.049Z,98195.03
2023-04-15T03:10:54.208Z,98191.66
2023-04-15T03:13:24.606Z,98192.81
2023-04-15T03:15:57.324Z,98196.91
2023-04-15T03:18:29.396Z,98199.19
2023-04-15T03:21:15.139Z,98194.31
2023-04-15T03:23:47.022Z,98199.19
2023-04-15T03:26:27.898Z,98203.53
2023-04-15T03:28:59.333Z,98200.03
2023-04-15T03:31:34.680Z,98199.34
2023-04-15T03:34:05.734Z,98195.59
2023-04-15T03:36:42.402Z,98203.25
2023-04-15T03:39:20.517Z,98196.69
2023-04-15T03:41:51.708Z,98205.84
2023-04-15T03:44:22.162Z,98206.69
2023-04-15T03:46:56.030Z,98201.44
2023-04-15T03:49:26.685Z,98206.97
2023-04-15T03:51:55.025Z,98195.72
2023-04-15T03:54:23.658Z,98206.03
2023-04-15T03:56:58.993Z,98206.59
2023-04-15T03:59:29.886Z,98209.47
2023-04-15T04:02:05.920Z,98216.28
2023-04-15T04:04:34.784Z,98216.03
2023-04-15T04:07:09.547Z,98215.19
2023-04-15T04:09:45.710Z,98219.69
2023-04-15T04:12:17.763Z,98217.00
2023-04-15T04:14:57.229Z,98223.25
2023-04-15T04:17:40.862Z,98225.91
2023-04-15T04:20:10.829Z,98234.84
2023-04-15T04:22:45.109Z,98240.78
2023-04-15T04:25:15.921Z,98238.28
2023-04-15T04:27:45.484Z,98231.00
2023-04-15T04:30:17.250Z,98242.59
2023-04-15T04:32:48.895Z,98239.94
2023-04-15T04:35:19.765Z,98249.13
2023-04-15T04:38:02.750Z,98251.38
2023-04-15T04:40:36.291Z,98259.97
2023-04-15T04:43:07.039Z,98260.97
2023-04-15T04:45:35.593Z,98265.16
2023-04-15T04:48:12.690Z,98264.16
2023-04-15T04:50:40.762Z,98265.53
2023-04-15T04:53:12.512Z,98266.13
2023-04-15T04:55:43.327Z,98266.56
2023-04-15T04:58:12.892Z,98275.00
2023-04-15T05:00:46.694Z,98273.44
2023-04-15T05:03:21.521Z,98271.81
2023-04-15T05:05:51.312Z,98270.00
2023-04-15T05:08:28.202Z,98270.00
2023-04-15T05:10:58.039Z,98272.28
2023-04-15T05:13:27.235Z,98272.81
2023-04-15T05:15:55.945Z,98274.91
2023-04-15T05:18:27.083Z,98267.38
2023-04-15T05:21:00.707Z,98272.50
2023-04-15T05:23:30.747Z,98273.50
2023-04-15T05:26:01.080Z,98275.94
2023-04-15T05:28:34.986Z,98281.81
2023-04-15T05:31:09.285Z,98279.88
2023-04-15T05:33:44.723Z,98287.50
2023-04-15T05:36:13.820Z,98291.34
2023-04-15T05:38:46.087Z,98286.38
2023-04-15T05:41:19.822Z,98286.34
2023-04-15T05:43:53.534Z,98296.78
2023-04-15T05:46:22.745Z,98290.22
2023-04-15T05:48:56.595Z,98290.91
2023-04-15T05:51:32.010Z,98290.31
2023-04-15T05:54:01.367Z,98292.25
2023-04-15T05:56:34.444Z,98295.03
2023-04-15T05:59:02.840Z,98298.47
2023-04-15T06:01:32.479Z,98293.28
2023-04-15T06:04:04.573Z,98300.47
2023-04-15T06:06:42.902Z,98304.09
2023-04-15T06:09:20.563Z,98300.94
2023-04-15T06:11:52.613Z,98314.50
2023-04-15T06:14:23.961Z,98304.84
2023-04-15T06:17:00.330Z,98312.31
2023-04-15T06:19:30.441Z,98308.66
2023-04-15T06:21:59.842Z,98321.72
2023-04-15T06:24:30.567Z,98315.63
2023-04-15T06:27:09.150Z,98308.81
2023-04-15T06:29:37.825Z,98322.47
2023-04-15T06:32:13.173Z,98314.53
2023-04-15T06:34:45.586Z,98319.81
2023-04-15T06:37:17.262Z,98320.66
2023-04-15T06:39:47.981Z,98323.13
2023-04-15T06:42:19.844Z,98319.09
2023-04-15T06:44:49.857Z,98325.22
2023-04-15T06:47:21.757Z,98324.41
2023-04-15T06:49:55.498Z,98329.41
2023-04-15T06:52:25.835Z,98333.28
2023-04-15T06:54:55.043Z,98332.84
2023-04-15T06:57:34.485Z,98329.78
2023-04-15T07:00:05.880Z,98334.66
2023-04-15T07:02:43.200Z,98341.69
2023-04-15T07:05:19.236Z,98339.78
2023-04-15T07:07:48.170Z,98343.91
2023-04-15T07:10:23.908Z,98345.78
2023-04-15T07:12:58.329Z,98343.81
2023-04-15T07:15:26.885Z,98346.94
2023-04-15T07:17:58.372Z,98343.66
2023-04-15T07:20:30.804Z,98348.06
2023-04-15T07:23:00.163Z,98349.25
2023-04-15T07:25:30.583Z,98353.00
2023-04-15T07:28:02.496Z,98357.84
2023-04-15T07:30:32.068Z,98351.31
2023-04-15T07:33:03.849Z,98359.44
2023-04-15T07:35:37.066Z,98360.28
2023-04-15T07:38:07.809Z,98369.13
2023-04-15T07:40:36.918Z,98372.94
2023-04-15T07:43:10.937Z,98368.38
2023-04-15T07:45:44.719Z,98370.81
2023-04-15T07:48:21.190Z,98361.31
2023-04-15T07:50:53.631Z,98373.47
2023-04-15T07:53:29.901Z,98370.50
2023-04-15T07:56:03.880Z,98375.28
2023-04-15T07:58:37.324Z,98375.97
2023-04-15T08:01:11.253Z,98381.38
2023-04-15T08:03:45.291Z,98372.41
2023-04-15T08:06:30.452Z,98382.28
2023-04-15T08:08:58.514Z,98381.28
2023-04-15T08:11:28.972Z,98386.53
2023-04-15T08:14:09.603Z,98387.13
2023-04-15T08:16:41.029Z,98392.28
2023-04-15T08:19:17.433Z,98396.03
2023-04-15T08:21:57.245Z,98399.38
2023-04-15T08:24:27.408Z,98402.03
2023-04-15T08:27:05.435Z,98396.75
2023-04-15T08:29:34.590Z,98388.19
2023-04-15T08:32:04.171Z,98394.72
2023-04-15T08:34:35.464Z,98392.91
2023-04-15T08:37:12.899Z,98398.94
2023-04-15T08:39:49.848Z,98403.56
2023-04-15T08:42:24.266Z,98399.09
2023-04-15T08:44:54.959Z,98409.88
2023-04-15T08:47:31.380Z,98419.50
2023-04-15T08:50:00.217Z,98421.28
2023-04-15T08:52:32.768Z,98423.50
2023-04-15T08:55:01.654Z,98413.38
2023-04-15T08:57:32.806Z,98424.66
2023-04-15T09:00:06.998Z,98425.59
2023-04-15T09:02:36.564Z,98427.31
2023-04-15T09:05:09.554Z,98424.84
2023-04-15T09:07:41.469Z,98432.47
2023-04-15T09:10:15.804Z,98431.75
2023-04-15T09:12:46.537Z,98432.75
2023-04-15T09:15:24.378Z,98431.50
2023-04-15T09:17:53.016Z,98439.25
2023-04-15T09:20:24.468Z,98444.53
2023-04-15T09:22:55.643Z,98440.72
2023-04-15T09:25:37.379Z,98446.91
2023-04-15T09:28:06.468Z,98440.41
2023-04-15T09:30:36.265Z,98444.53
2023-04-15T09:33:08.793Z,98453.84
2023-04-15T09:35:44.804Z,98457.66
2023-04-15T09:38:19.306Z,98452.28
2023-04-15T09:41:00.948Z,98456.41
2023-04-15T09:43:42.821Z,98456.31
2023-04-15T09:46:13.675Z,98448.41
2023-04-15T09:48:50.296Z,98459.34
2023-04-15T09:51:24.035Z,98458.13
2023-04-15T09:53:59.523Z,98462.66
2023-04-15T09:56:37.365Z,98460.13
2023-04-15T09:59:11.380Z,98472.25
2023-04-15T10:01:42.253Z,98469.34
2023-04-15T10:04:12.546Z,98465.78
2023-04-15T10:06:43.651Z,98471.09
2023-04-15T10:09:27.732Z,98482.19
2023-04-15T10:11:56.170Z,98474.53
2023-04-15T10:14:27.253Z,98477.59
2023-04-15T10:16:57.934Z,98481.56
2023-04-15T10:19:38.345Z,98487.56
2023-04-15T10:22:12.826Z,98484.25
2023-04-15T10:24:51.796Z,98487.91
2023-04-15T10:27:22.457Z,98489.41
2023-04-15T10:29:57.154Z,98491.78
2023-04-15T10:32:34.839Z,98495.16
2023-04-15T10:35:06.149Z,98500.41
2023-04-15T10:37:44.605Z,98498.38
2023-04-15T10:40:35.461Z,98487.81
2023-04-15T10:43:04.507Z,98494.56
2023-04-15T10:45:39.119Z,98496.66
2023-04-15T10:48:13.397Z,98495.41
2023-04-15T10:50:44.197Z,98495.41
2023-04-15T10:53:17.384Z,98500.25
2023-04-15T10:55:49.982Z,98504.13
2023-04-15T10:58:25.082Z,98505.38
2023-04-15T11:00:56.824Z,98507.94
2023-04-15T11:03:41.281Z,98508.03
2023-04-15T11:06:15.278Z,98514.16
2023-04-15T11:09:03.496Z,98517.91
2023-04-15T11:12:23.181Z,98522.19
2023-04-15T11:14:52.539Z,98517.88
2023-04-15T11:17:30.026Z,98526.88
2023-04-15T11:20:02.334Z,98522.44
2023-04-15T11:22:33.497Z,98518.09
2023-04-15T11:25:09.934Z,98530.56
2023-04-15T11:27:42.082Z,98522.59
2023-04-15T11:30:23.437Z,98528.41
2023-04-15T11:32:52.736Z,98534.03
2023-04-15T11:35:26.844Z,98529.84
2023-04-15T11:37:55.871Z,98531.22
2023-04-15T11:40:30.571Z,98538.69
2023-04-15T11:43:12.427Z,98533.38
2023-04-15T11:45:53.434Z,98541.94
2023-04-15T11:48:34.272Z,98538.47
2023-04-15T11:51:05.248Z,98547.09
2023-04-15T11:53:44.942Z,98538.31
2023-04-15T11:56:20.058Z,98539.09
2023-04-15T11:58:53.771Z,98546.44
2023-04-15T12:01:24.319Z,98538.31
2023-04-15T12:04:00.945Z,98552.06
2023-04-15T12:06:39.765Z,98549.47
2023-04-15T12:09:13.568Z,98545.09
2023-04-15T12:11:50.786Z,98539.19
2023-04-15T12:14:27.132Z,98552.09
2023-04-15T12:17:04.610Z,98548.88
2023-04-15T12:19:41.477Z,98558.47
2023-04-15T12:22:20.081Z,98558.34
2023-04-15T12:24:49.946Z,98561.22
2023-04-15T12:27:21.897Z,98558.34
2023-04-15T12:29:51.631Z,98570.72
2023-04-15T12:32:21.936Z,98567.91
2023-04-15T12:34:54.502Z,98563.63
2023-04-15T12:37:24.062Z,98566.84
2023-04-15T12:39:56.504Z,98572.81
2023-04-15T12:42:39.595Z,98571.47
2023-04-15T12:45:17.478Z,98568.91
2023-04-15T12:47:47.724Z,98582.00
2023-04-15T12:50:21.254Z,98578.91
2023-04-15T12:52:50.394Z,98578.59
2023-04-15T12:55:25.552Z,98583.00
2023-04-15T12:57:55.127Z,98590.22
2023-04-15T13:00:26.905Z,98589.13
2023-04-15T13:02:56.220Z,98595.72
2023-04-15T13:05:26.833Z,98602.28
2023-04-15T13:07:58.758Z,98599.81
2023-04-15T13:10:29.386Z,98621.91
2023-04-15T13:13:00.269Z,98613.66
2023-04-15T13:15:35.995Z,98604.72
2023-04-15T13:18:04.181Z,98613.91
2023-04-15T13:20:32.442Z,98614.47
2023-04-15T13:23:00.983Z,98626.47
2023-04-15T13:25:29.350Z,98620.56
2023-04-15T13:27:59.831Z,98621.09
2023-04-15T13:30:28.648Z,98621.03
2023-04-15T13:33:09.585Z,98619.56
2023-04-15T13:35:40.513Z,98617.94
2023-04-15T13:38:09.648Z,98616.41
2023-04-15T13:40:46.465Z,98617.00
2023-04-15T13:43:24.719Z,98617.41
2023-04-15T13:45:55.697Z,98627.69
2023-04-15T13:48:27.734Z,98632.81
2023-04-15T13:51:03.585Z,98635.94
2023-04-15T13:53:40.868Z,98628.56
2023-04-15T13:56:09.806Z,98630.84
2023-04-15T13:58:41.686Z,98635.38
2023-04-15T14:01:12.635Z,98637.44
2023-04-15T14:03:57.693Z,98636.28
2023-04-15T14:06:26.411Z,98643.16
2023-04-15T14:08:57.769Z,98639.38
2023-04-15T14:11:32.774Z,98641.09
2023-04-15T14:14:05.313Z,98647.50
2023-04-15T14:16:37.733Z,98650.97
2023-04-15T14:19:22.976Z,98648.88
2023-04-15T14:21:58.679Z,98647.53
2023-04-15T14:24:28.483Z,98649.34
2023-04-15T14:27:00.341Z,98662.81
2023-04-15T14:29:32.949Z,98656.50
2023-04-15T14:32:12.233Z,98658.03
2023-04-15T14:34:45.001Z,98659.91
2023-04-15T14:37:23.139Z,98660.63
2023-04-15T14:39:54.090Z,98673.03
2023-04-15T14:42:26.085Z,98673.19
2023-04-15T14:44:55.714Z,98678.13
2023-04-15T14:47:26.590Z,98684.19
2023-04-15T14:49:57.042Z,98681.19
2023-04-15T14:52:26.988Z,98682.75
2023-04-15T14:54:58.378Z,98698.97
2023-04-15T14:57:29.361Z,98698.53
2023-04-15T14:59:59.330Z,98699.78
2023-04-15T15:02:38.379Z,98710.88
2023-04-15T15:05:12.646Z,98698.88
2023-04-15T15:07:42.549Z,98700.84
2023-04-15T15:10:32.677Z,98696.38
2023-04-15T15:13:11.424Z,98693.94
2023-04-15T15:15:41.015Z,98709.97
2023-04-15T15:18:20.438Z,98735.13
2023-04-15T15:20:52.318Z,98714.63
2023-04-15T15:23:32.492Z,98720.75
2023-04-15T15:26:02.302Z,98720.75
2023-04-15T15:28:40.788Z,98719.94
2023-04-15T15:31:19.065Z,98730.34
2023-04-15T15:33:48.642Z,98729.13
2023-04-15T15:36:21.281Z,98732.25
2023-04-15T15:38:50.746Z,98735.09
2023-04-15T15:41:20.011Z,98752.16
2023-04-15T15:43:48.213Z,98731.84
2023-04-15T15:46:19.400Z,98722.75
2023-04-15T15:48:48.960Z,98735.91
2023-04-15T15:51:20.074Z,98734.66
2023-04-15T15:53:50.787Z,98735.81
2023-04-15T15:56:20.361Z,98743.25
2023-04-15T15:58:49.490Z,98748.19
2023-04-15T16:01:23.618Z,98752.06
2023-04-15T16:03:56.309Z,98754.94
2023-04-15T16:06:29.682Z,98753.25
2023-04-15T16:09:08.411Z,98759.56
2023-04-15T16:11:41.137Z,98759.81
2023-04-15T16:14:14.172Z,98751.84
2023-04-15T16:16:58.230Z,98763.84
2023-04-15T16:19:27.579Z,98769.41
2023-04-15T16:22:05.979Z,98772.44
2023-04-15T16:24:40.436Z,98775.34
2023-04-15T16:27:18.583Z,98769.41
2023-04-15T16:29:50.109Z,98770.66
2023-04-15T16:32:21.151Z,98787.22
2023-04-15T16:34:55.330Z,98777.75
2023-04-15T16:37:25.529Z,98781.00
2023-04-15T16:39:57.701Z,98794.28
2023-04-15T16:42:26.953Z,98795.25
2023-04-15T16:45:01.477Z,98795.34
2023-04-15T16:47:31.727Z,98811.44
2023-04-15T16:50:02.500Z,98805.31
2023-04-15T16:52:46.233Z,98816.22
2023-04-15T16:55:25.889Z,98809.72
2023-04-15T16:58:01.745Z,98811.72
2023-04-15T17:00:44.271Z,98820.78
2023-04-15T17:03:14.197Z,98814.53
2023-04-15T17:05:44.946Z,98824.44
2023-04-15T17:08:29.404Z,98819.53
2023-04-15T17:11:11.160Z,98823.72
2023-04-15T17:13:39.884Z,98830.91
2023-04-15T17:16:11.631Z,98835.06
2023-04-15T17:18:43.222Z,98824.72
2023-04-15T17:21:11.649Z,98836.22
2023-04-15T17:23:56.176Z,98840.69
2023-04-15T17:26:26.854Z,98841.34
2023-04-15T17:29:00.922Z,98840.06
2023-04-15T17:31:31.488Z,98839.28
2023-04-15T17:34:13.874Z,98856.38
2023-04-15T17:36:51.991Z,98849.50
2023-04-15T17:39:23.496Z,98860.38
2023-04-15T17:41:55.981Z,98856.75
2023-04-15T17:44:30.600Z,98869.22
2023-04-15T17:47:00.393Z,98873.69
2023-04-15T17:49:32.273Z,98869.47
2023-04-15T17:52:07.380Z,98878.28
2023-04-15T17:54:44.677Z,98882.47
2023-04-15T17:57:27.923Z,98883.22
2023-04-15T18:00:04.060Z,98893.13
2023-04-15T18:03:03.600Z,98903.19
2023-04-15T18:05:37.427Z,98900.13
2023-04-15T18:08:13.230Z,98901.38
2023-04-15T18:11:03.111Z,98912.72
2023-04-15T18:13:48.789Z,98910.19
2023-04-15T18:16:20.717Z,98918.13
2023-04-15T18:18:55.945Z,98925.16
2023-04-15T18:21:38.677Z,98918.03
2023-04-15T18:24:10.332Z,98924.16
2023-04-15T18:26:53.009Z,98927.50
2023-04-15T18:29:23.134Z,98930.16
2023-04-15T18:31:56.200Z,98929.91
2023-04-15T18:34:35.193Z,98936.16
2023-04-15T18:37:06.429Z,98934.78
2023-04-15T18:39:49.839Z,98940.94
2023-04-15T18:42:21.045Z,98938.56
2023-04-15T18:44:53.321Z,98948.91
2023-04-15T18:47:27.842Z,98949.84
2023-04-15T18:49:59.842Z,98960.88
2023-04-15T18:52:41.451Z,98957.13
2023-04-15T18:55:20.654Z,98963.94
2023-04-15T18:57:51.879Z,98972.63
2023-04-15T19:00:32.873Z,98976.97
2023-04-15T19:03:04.362Z,98973.88
2023-04-15T19:05:54.774Z,98982.97
2023-04-15T19:08:25.754Z,98981.66
2023-04-15T19:10:58.295Z,98981.66
2023-04-15T19:13:30.896Z,98986.69
2023-04-15T19:16:06.021Z,98985.03
2023-04-15T19:18:45.563Z,98994.22
2023-04-15T19:21:16.048Z,98993.91
2023-04-15T19:23:48.440Z,98995.75
2023-04-15T19:26:26.823Z,98990.44
2023-04-15T19:29:11.957Z,98998.00
2023-04-15T19:31:55.048Z,98993.97
2023-04-15T19:34:34.721Z,98996.88
2023-04-15T19:39:53.308Z,99003.56
2023-04-15T19:42:31.479Z,99000.31
2023-04-15T19:45:18.371Z,99004.03
2023-04-15T19:47:52.696Z,99003.31
2023-04-15T19:50:29.242Z,99011.91
2023-04-15T19:53:09.087Z,99013.72
2023-04-15T19:55:42.129Z,99015.44
2023-04-15T19:58:23.892Z,99012.91
2023-04-15T20:00:58.656Z,99022.94
2023-04-15T20:06:11.706Z,99029.81
2023-04-15T20:08:47.998Z,99028.63
2023-04-15T20:12:48.108Z,99024.53
2023-04-15T20:14:22.899Z,99036.56
2023-04-15T20:16:58.941Z,99043.13
2023-04-15T20:19:47.023Z,99046.06
2023-04-15T20:22:30.330Z,99046.22
2023-04-15T20:25:08.509Z,99053.75
2023-04-15T20:27:42.538Z,99051.56
2023-04-15T20:30:21.260Z,99056.44
2023-04-15T20:32:59.730Z,99058.06
2023-04-15T20:35:41.527Z,99061.44
2023-04-15T20:38:11.099Z,99063.50
2023-04-15T20:40:41.792Z,99066.13
2023-04-15T20:43:12.148Z,99064.09
2023-04-15T20:45:46.767Z,99075.09
2023-04-15T20:48:23.049Z,99075.38
2023-04-15T20:50:54.321Z,99080.81
2023-04-15T20:53:24.390Z,99078.22
2023-04-15T20:55:53.771Z,99080.50
2023-04-15T20:58:31.917Z,99083.94
2023-04-15T21:01:03.725Z,99083.09
2023-04-15T21:03:44.749Z,99088.50
2023-04-15T21:06:19.118Z,99090.34
2023-04-15T21:08:56.918Z,99089.63
2023-04-15T21:11:46.424Z,99093.22
2023-04-15T21:14:15.273Z,99097.84
2023-04-15T21:16:48.118Z,99098.47
2023-04-15T21:19:19.785Z,99107.00
2023-04-15T21:21:51.557Z,99105.75
2023-04-15T21:24:22.101Z,99105.47
2023-04-15T21:26:54.790Z,99105.47
2023-04-15T21:29:22.999Z,99102.09
2023-04-15T21:32:04.244Z,99103.78
2023-04-15T21:34:40.224Z,99111.25
2023-04-15T21:37:08.551Z,99111.13
2023-04-15T21:39:46.301Z,99103.69
2023-04-15T21:42:20.700Z,99113.06
2023-04-15T21:44:50.991Z,99125.09
2023-04-15T21:47:20.343Z,99120.66
2023-04-15T21:49:51.919Z,99121.16
2023-04-15T21:52:22.713Z,99122.28
2023-04-15T21:54:53.711Z,99119.13
2023-04-15T21:57:34.383Z,99120.88
2023-04-15T22:00:03.159Z,99112.66
2023-04-15T22:02:52.532Z,99125.13
2023-04-15T22:05:22.363Z,99124.59
2023-04-15T22:08:04.682Z,99128.97
2023-04-15T22:10:35.404Z,99122.66
2023-04-15T22:13:09.149Z,99137.69
2023-04-15T22:15:39.318Z,99137.44
2023-04-15T22:18:08.831Z,99135.22
2023-04-15T22:20:38.386Z,99138.19
2023-04-15T22:23:12.427Z,99145.28
2023-04-15T22:25:43.074Z,99145.31
2023-04-15T22:28:12.560Z,99155.66
2023-04-15T22:30:43.236Z,99161.22
2023-04-15T22:33:20.186Z,99161.97
2023-04-15T22:35:52.031Z,99161.97
2023-04-15T22:38:23.879Z,99167.06
2023-04-15T22:40:55.382Z,99164.59
2023-04-15T22:43:27.495Z,99171.00
2023-04-15T22:45:56.715Z,99175.72
2023-04-15T22:48:27.272Z,99177.28
2023-04-15T22:51:01.997Z,99178.81
2023-04-15T22:53:43.016Z,99185.94
2023-04-15T22:56:16.933Z,99179.78
2023-04-15T22:58:53.024Z,99192.91
2023-04-15T23:01:22.901Z,99187.03
2023-04-15T23:03:56.226Z,99188.41
2023-04-15T23:06:30.082Z,99192.94
2023-04-15T23:09:01.943Z,99191.19
2023-04-15T23:11:33.310Z,99195.06
2023-04-15T23:14:17.180Z,99203.03
2023-04-15T23:16:51.152Z,99204.66
2023-04-15T23:19:20.061Z,99209.59
2023-04-15T23:21:51.963Z,99211.28
2023-04-15T23:24:28.951Z,99210.06
2023-04-15T23:27:01.731Z,99207.47
2023-04-15T23:29:38.381Z,99207.56
2023-04-15T23:32:07.923Z,99211.56
2023-04-15T23:34:48.402Z,99214.06
2023-04-15T23:37:24.276Z,99206.84
2023-04-15T23:39:58.432Z,99217.78
2023-04-15T23:42:38.489Z,99222.09
2023-04-15T23:45:18.255Z,99222.88
2023-04-15T23:47:47.377Z,99221.13
2023-04-15T23:50:20.376Z,99216.16
2023-04-15T23:52:55.301Z,99221.75
2023-04-15T23:55:29.350Z,99227.66
2023-04-15T23:58:01.075Z,99220.47
